In Rescue
 
Open Full Screen Window  High Contrast Mode
Wind Gusting 00 knots
04
November 29, 2022 8:08 AM CST
Present Weather: Snow
Weather Information
Wind Direction
  310 °
Wind Speed
  04 kt (5 mph)
Wind Gust
  00 kt (0 mph)
Altimeter
29.72 in
Visibility
1/2 SM
Temperature
-03° C
27° F
Dewpoint
-05° C
23° F
Humidity
86%
1hr Rain Fall
00.00 in.
24hr Rain Fall
00.00 in.
Sky Condition
Broken @ 400 ft
LIFR

METAR KPNM 291408Z AUTO 31004KT 1/2SM SN BKN004 M03/M05 A2972 RMK AO2 TSNO

FAA Disclaimer: The data displayed is for advisory purposes only and is not to be used for flight planning or operations.